Main page
METAR-TAF:

METAR-TAF

Airports :

Multan, Pakistan

Multan International Airport

latitude: 30-12-12N, longitude: 71-25-09E, elevation: 122 m

Current weather observation

The report was made 19 minutes ago, at 10:00 UTC
Wind 6 kt from the Northeast
Temperature 38°C
Humidity 42%
Pressure 1000 hPa
Visibility: 5000 m
Scattered clouds at a height of 4000 ft
haze

METAR: OPMT 211000Z 05006KT 5000 HZ SCT040 38/23 Q1000 NOSIG

Time: 15:19 (10:19 UTC)

Forecast

The report was made 6 hours and 29 minutes ago, at 03:50 UTC
Forecast valid from 21 at 06 UTC to 21 at 24 UTC
Wind 10 kt from the Northeast
Visibility: 5000 m
Few clouds at a height of 4000 ft
haze
From 21 at 1500 UTC
Wind 5 kt from the Southeast
Visibility: 4000 m
Scattered clouds at a height of 12000 ft
smoke

TAF: OPMT 210350Z 2106/2124 05010KT 5000 HZ FEW040 TX37/2110Z FM211500 13005KT 4000 FU SCT120

Weather observations and forecasts of more than 4000 airports (METAR and TAF reports).

The available stations are represented by yellow and red dots on the map.

Hover mouse over dot to see the name of the station.

Then click to see weather observations and forecasts.

To change the map : click on the green buttons with a black cross to zoom in, on the green button with a dash to zoom out, or on the green arrows for adjacent maps.


METAR-TAF: